Time;durP1;ratioP1;P1;durP2;ratioP2;P2;SDS_P1;SDS_P2;PMS_P1;PMS_P2;Temp;Humidity;BMP_temperature;BMP_pressure;BME280_temperature;BME280_humidity;BME280_pressure;Samples;Min_cycle;Max_cycle;Signal;HPM_P1;HPM_P2
2023/09/03 00:01:35;;;;;;;6.38;4.13;;;13.90;99.90;;;;;;5012747;28;20120;-63
2023/09/03 00:04:00;;;;;;;8.85;4.22;;;13.80;99.90;;;;;;5058826;22;20139;-64
2023/09/03 00:06:26;;;;;;;5.57;3.83;;;13.80;99.90;;;;;;5046620;28;20037;-64
2023/09/03 00:08:51;;;;;;;6.70;3.80;;;13.70;99.90;;;;;;5049208;28;20433;-64
2023/09/03 00:11:17;;;;;;;6.63;4.32;;;13.70;99.90;;;;;;5053178;28;20406;-64
2023/09/03 00:13:43;;;;;;;6.63;3.80;;;13.70;99.90;;;;;;5049937;28;20145;-64
2023/09/03 00:16:09;;;;;;;7.78;4.60;;;13.60;99.90;;;;;;5058827;28;20041;-64
2023/09/03 00:18:36;;;;;;;7.85;4.30;;;13.60;99.90;;;;;;5049284;28;20441;-64
2023/09/03 00:21:05;;;;;;;7.70;4.45;;;13.60;99.90;;;;;;5049573;28;20119;-64
2023/09/03 00:23:33;;;;;;;8.50;4.60;;;13.60;99.90;;;;;;5053288;28;20029;-64
2023/09/03 00:26:00;;;;;;;9.25;4.95;;;13.60;99.90;;;;;;5052955;28;20087;-64
2023/09/03 00:28:26;;;;;;;9.95;5.60;;;13.60;99.90;;;;;;5048157;28;20037;-64
2023/09/03 00:31:02;;;;;;;8.93;5.28;;;13.60;99.90;;;;;;5049473;28;20068;-64
2023/09/03 00:33:28;;;;;;;8.02;5.57;;;13.50;99.90;;;;;;5071447;28;20099;-63
2023/09/03 00:35:53;;;;;;;8.98;4.93;;;13.50;99.90;;;;;;5050945;28;20041;-64
2023/09/03 00:38:19;;;;;;;8.20;5.70;;;13.50;99.90;;;;;;5054720;28;20065;-64
2023/09/03 00:40:45;;;;;;;6.38;4.88;;;13.50;99.90;;;;;;5049770;28;20120;-64
2023/09/03 00:43:10;;;;;;;8.90;4.63;;;13.40;99.90;;;;;;5048997;28;20029;-64
2023/09/03 00:45:36;;;;;;;7.68;4.65;;;13.40;99.90;;;;;;5050095;28;20090;-63
2023/09/03 00:48:02;;;;;;;9.93;5.30;;;13.30;99.90;;;;;;5052906;28;20124;-64
2023/09/03 00:50:29;;;;;;;7.05;4.88;;;13.30;99.90;;;;;;5053620;28;20510;-64
2023/09/03 00:52:55;;;;;;;7.78;5.13;;;13.30;99.90;;;;;;5053205;28;20410;-63
2023/09/03 00:55:21;;;;;;;7.47;5.00;;;13.30;99.90;;;;;;5052170;28;20464;-63
2023/09/03 00:57:48;;;;;;;7.45;4.38;;;13.20;99.90;;;;;;5053041;28;20048;-63
2023/09/03 01:00:15;;;;;;;5.57;4.13;;;13.20;99.90;;;;;;5046270;28;20049;-63
2023/09/03 01:02:44;;;;;;;8.30;4.75;;;13.20;99.90;;;;;;5053089;28;20056;-64
2023/09/03 01:05:10;;;;;;;6.28;4.63;;;13.20;99.90;;;;;;5051542;28;20384;-64
2023/09/03 01:07:36;;;;;;;6.68;4.18;;;13.10;99.90;;;;;;5053430;28;20406;-64
2023/09/03 01:10:02;;;;;;;5.53;4.03;;;13.10;99.90;;;;;;5052003;28;20047;-64
2023/09/03 01:12:36;;;;;;;8.18;4.05;;;13.10;99.90;;;;;;5053966;28;20115;-64
2023/09/03 01:15:10;;;;;;;7.07;4.53;;;13.20;99.90;;;;;;5049459;28;20170;-64
2023/09/03 01:17:51;;;;;;;7.75;4.72;;;13.20;99.90;;;;;;5051287;28;20048;-64
2023/09/03 01:20:40;;;;;;;8.13;4.97;;;13.20;99.90;;;;;;5053324;28;20119;-64
2023/09/03 01:23:37;;;;;;;7.00;5.03;;;13.20;99.90;;;;;;5043832;28;20053;-64
2023/09/03 01:26:31;;;;;;;7.95;5.40;;;13.20;99.90;;;;;;5053061;28;20048;-63
2023/09/03 01:28:58;;;;;;;9.55;5.47;;;13.20;99.90;;;;;;5052575;28;20049;-63
2023/09/03 01:31:25;;;;;;;8.90;5.57;;;13.20;99.90;;;;;;5052936;28;20255;-63
2023/09/03 01:33:50;;;;;;;8.40;5.60;;;13.20;99.90;;;;;;5051693;28;20048;-63
2023/09/03 01:36:17;;;;;;;10.65;4.55;;;13.20;99.90;;;;;;5052863;28;20036;-63
2023/09/03 01:38:43;;;;;;;8.07;4.75;;;13.10;99.90;;;;;;5052370;28;20528;-64
2023/09/03 01:41:09;;;;;;;7.85;5.28;;;13.10;99.90;;;;;;5046654;28;20075;-63
2023/09/03 01:43:35;;;;;;;8.52;5.22;;;13.10;99.90;;;;;;5053032;28;20402;-63
2023/09/03 01:46:12;;;;;;;9.35;5.68;;;13.10;99.90;;;;;;5051848;28;20110;-63
2023/09/03 01:48:56;;;;;;;9.40;5.95;;;13.00;99.90;;;;;;5052489;28;20033;-63
2023/09/03 01:51:44;;;;;;;7.63;5.53;;;13.00;99.90;;;;;;5052712;28;20453;-63
2023/09/03 01:54:20;;;;;;;9.40;5.82;;;13.00;99.90;;;;;;5052576;28;20043;-63
2023/09/03 01:56:56;;;;;;;8.07;5.22;;;13.00;99.90;;;;;;5046514;28;20049;-63
2023/09/03 01:59:29;;;;;;;7.03;4.63;;;13.00;99.90;;;;;;5052312;28;20033;-63
2023/09/03 02:01:56;;;;;;;7.40;4.97;;;13.00;99.90;;;;;;5052107;28;20497;-64
2023/09/03 02:04:22;;;;;;;10.20;5.20;;;12.90;99.90;;;;;;5052391;28;20053;-63
2023/09/03 02:06:48;;;;;;;7.90;5.88;;;13.00;99.90;;;;;;5052160;28;20040;-63
2023/09/03 02:09:13;;;;;;;8.57;5.82;;;13.00;99.90;;;;;;5052193;28;20037;-63
2023/09/03 02:11:39;;;;;;;8.57;5.80;;;13.00;99.90;;;;;;5051932;28;20052;-63
2023/09/03 02:14:05;;;;;;;9.48;6.00;;;13.00;99.90;;;;;;5052287;28;20041;-63
2023/09/03 02:16:30;;;;;;;10.20;5.72;;;13.00;99.90;;;;;;5051873;28;20494;-63
2023/09/03 02:18:56;;;;;;;7.95;5.22;;;13.00;99.90;;;;;;5050779;28;20075;-63
2023/09/03 02:21:21;;;;;;;7.28;4.68;;;13.00;99.90;;;;;;5052077;28;20155;-63
2023/09/03 02:23:47;;;;;;;11.02;5.28;;;13.00;99.90;;;;;;5051771;28;20388;-63
2023/09/03 02:26:12;;;;;;;9.02;5.72;;;13.00;99.90;;;;;;5051432;28;20033;-63
2023/09/03 02:28:39;;;;;;;8.40;5.97;;;13.00;99.90;;;;;;5049904;28;20112;-63
2023/09/03 02:31:05;;;;;;;9.85;5.65;;;13.00;99.90;;;;;;5047076;28;20044;-64
2023/09/03 02:33:31;;;;;;;8.90;5.35;;;13.00;99.90;;;;;;5051909;28;20067;-64
2023/09/03 02:35:56;;;;;;;6.88;5.10;;;13.00;99.90;;;;;;5051366;28;20470;-64
2023/09/03 02:38:25;;;;;;;8.30;5.03;;;13.00;99.90;;;;;;5050170;28;20041;-63
2023/09/03 02:40:51;;;;;;;8.60;5.03;;;12.90;99.90;;;;;;5050988;28;20039;-63
2023/09/03 02:43:17;;;;;;;8.77;5.47;;;12.90;99.90;;;;;;5068715;22;20144;-76
2023/09/03 02:45:42;;;;;;;6.85;5.15;;;13.30;99.90;;;;;;5032928;28;20049;-76
2023/09/03 02:48:08;;;;;;;9.52;5.45;;;12.90;99.90;;;;;;5046594;28;20052;-75
2023/09/03 02:50:37;;;;;;;8.25;5.78;;;12.90;99.90;;;;;;5046791;28;20037;-75
2023/09/03 02:53:05;;;;;;;8.13;5.28;;;12.90;99.90;;;;;;5040772;28;20041;-75
2023/09/03 02:55:33;;;;;;;9.73;6.45;;;12.90;99.90;;;;;;5032981;28;20038;-75
2023/09/03 02:58:00;;;;;;;9.75;6.18;;;12.90;99.90;;;;;;5008389;28;20382;-77
2023/09/03 03:00:27;;;;;;;10.55;6.38;;;12.90;99.90;;;;;;5031719;28;20045;-77
2023/09/03 03:02:54;;;;;;;9.63;6.30;;;12.90;99.90;;;;;;5031142;28;20292;-77
2023/09/03 03:05:20;;;;;;;10.88;6.55;;;12.90;99.90;;;;;;5032738;28;20087;-77
2023/09/03 03:07:45;;;;;;;10.35;6.85;;;13.60;99.90;;;;;;5031138;28;20056;-77
2023/09/03 03:10:11;;;;;;;9.23;6.18;;;12.80;99.90;;;;;;5033857;28;20044;-77
2023/09/03 03:12:37;;;;;;;9.45;6.32;;;12.80;99.90;;;;;;5015434;28;20042;-77
2023/09/03 03:15:08;;;;;;;9.00;6.38;;;13.50;99.90;;;;;;5033188;28;20517;-77
2023/09/03 03:17:34;;;;;;;8.70;6.20;;;12.70;99.90;;;;;;5025810;28;20044;-77
2023/09/03 03:19:59;;;;;;;9.93;6.00;;;12.70;99.90;;;;;;5032013;28;20124;-77
2023/09/03 03:22:25;;;;;;;9.25;5.85;;;12.70;99.90;;;;;;5031806;28;20033;-77
2023/09/03 03:24:51;;;;;;;8.68;6.32;;;12.70;99.90;;;;;;5013612;28;20493;-77
2023/09/03 03:27:17;;;;;;;12.30;6.70;;;12.70;99.90;;;;;;5031118;28;20048;-78
2023/09/03 03:29:43;;;;;;;10.77;6.80;;;12.70;99.90;;;;;;5030188;28;20061;-77
2023/09/03 03:32:08;;;;;;;9.60;6.55;;;12.60;99.90;;;;;;5007700;28;20041;-78
2023/09/03 03:34:34;;;;;;;9.68;6.55;;;12.60;99.90;;;;;;5034196;28;20041;-77
2023/09/03 03:37:04;;;;;;;8.45;6.35;;;12.60;99.90;;;;;;5017228;28;20551;-77
2023/09/03 03:39:35;;;;;;;10.95;7.03;;;12.50;99.90;;;;;;5032699;28;20049;-77
2023/09/03 03:42:00;;;;;;;9.57;6.55;;;12.50;99.90;;;;;;5029768;28;20064;-77
2023/09/03 03:44:26;;;;;;;10.45;7.32;;;12.40;99.90;;;;;;5031888;28;20041;-77
2023/09/03 03:46:51;;;;;;;10.27;7.03;;;12.30;99.90;;;;;;5030907;28;20053;-77
2023/09/03 03:49:17;;;;;;;11.15;7.60;;;12.30;99.90;;;;;;5031717;28;20060;-77
2023/09/03 03:51:43;;;;;;;10.60;7.70;;;12.30;99.90;;;;;;5031319;28;20046;-77
2023/09/03 03:54:17;;;;;;;11.07;8.07;;;12.30;99.90;;;;;;5015746;28;20098;-77
2023/09/03 03:56:42;;;;;;;9.73;7.63;;;12.30;99.90;;;;;;5029886;28;20120;-76
2023/09/03 03:59:08;;;;;;;9.05;6.28;;;12.30;99.90;;;;;;5030277;28;20128;-77
2023/09/03 04:01:34;;;;;;;9.15;5.35;;;12.30;99.90;;;;;;5014662;28;20091;-76
2023/09/03 04:03:59;;;;;;;8.80;5.15;;;12.20;99.90;;;;;;5031757;28;20501;-77
2023/09/03 04:06:27;;;;;;;6.45;4.95;;;12.20;99.90;;;;;;5030206;28;20095;-77
2023/09/03 04:08:54;;;;;;;8.07;4.60;;;12.20;99.90;;;;;;5013636;28;20029;-76
2023/09/03 04:11:19;;;;;;;7.45;4.30;;;12.20;99.90;;;;;;5030493;28;20038;-77
2023/09/03 04:13:45;;;;;;;10.95;4.97;;;12.20;99.90;;;;;;5030777;28;20124;-77
2023/09/03 04:16:15;;;;;;;12.50;6.18;;;12.80;99.90;;;;;;5037735;28;20037;-77
2023/09/03 04:18:44;;;;;;;11.73;6.45;;;12.20;99.90;;;;;;5029538;28;20476;-77
2023/09/03 04:21:10;;;;;;;11.07;6.85;;;11.60;99.90;;;;;;5031588;28;20056;-77
2023/09/03 04:23:35;;;;;;;14.70;8.02;;;12.30;99.90;;;;;;5014296;28;20053;-77
2023/09/03 04:26:03;;;;;;;14.23;8.57;;;12.30;99.90;;;;;;5032307;28;20497;-77
2023/09/03 04:28:31;;;;;;;13.25;7.95;;;12.30;99.90;;;;;;5013779;28;20099;-77
2023/09/03 04:31:08;;;;;;;17.25;9.15;;;12.20;99.90;;;;;;5024922;28;20040;-76
2023/09/03 04:33:35;;;;;;;15.20;8.27;;;12.20;99.90;;;;;;5033221;28;20087;-77
2023/09/03 04:36:02;;;;;;;14.77;8.75;;;12.20;99.90;;;;;;5029804;28;20053;-77
2023/09/03 04:38:31;;;;;;;15.18;7.50;;;12.20;99.90;;;;;;5026492;28;20072;-77
2023/09/03 04:41:03;;;;;;;10.05;7.28;;;12.20;99.90;;;;;;5031878;28;20051;-77
2023/09/03 04:43:44;;;;;;;9.95;7.30;;;12.10;99.90;;;;;;5015745;28;20037;-77
2023/09/03 04:46:27;;;;;;;10.75;8.02;;;12.10;99.90;;;;;;5029718;28;20046;-77
2023/09/03 04:48:53;;;;;;;11.73;7.90;;;12.10;99.90;;;;;;5013644;28;20040;-78
2023/09/03 04:51:18;;;;;;;12.85;8.30;;;12.10;99.90;;;;;;5013859;28;20053;-78
2023/09/03 04:53:44;;;;;;;11.02;7.80;;;12.20;99.90;;;;;;5032786;28;20041;-77
2023/09/03 04:56:14;;;;;;;10.13;7.55;;;12.20;99.90;;;;;;5031237;28;20073;-77
2023/09/03 04:58:40;;;;;;;9.95;6.45;;;12.10;99.90;;;;;;5030995;28;20041;-77
2023/09/03 05:01:15;;;;;;;9.18;6.53;;;12.20;99.90;;;;;;5031618;28;20516;-77
2023/09/03 05:03:41;;;;;;;8.50;5.97;;;12.10;99.90;;;;;;5030103;28;20077;-77
2023/09/03 05:06:16;;;;;;;10.60;7.38;;;12.70;99.90;;;;;;5030253;28;20579;-77
2023/09/03 05:08:42;;;;;;;10.75;7.18;;;12.10;99.90;;;;;;5032856;28;20041;-77
2023/09/03 05:11:11;;;;;;;11.38;7.80;;;12.10;99.90;;;;;;5031745;28;20045;-77
2023/09/03 05:13:45;;;;;;;11.38;7.60;;;12.20;99.90;;;;;;5013801;28;20446;-77
2023/09/03 05:16:10;;;;;;;11.85;7.63;;;12.30;99.90;;;;;;5014494;28;20129;-78
2023/09/03 05:18:36;;;;;;;15.02;8.13;;;12.20;99.90;;;;;;5029406;28;20432;-77
2023/09/03 05:21:08;;;;;;;10.48;7.63;;;12.20;99.90;;;;;;5029883;28;20038;-78
2023/09/03 05:23:35;;;;;;;13.60;9.38;;;12.20;99.90;;;;;;5030395;28;20048;-78
2023/09/03 05:26:01;;;;;;;13.85;8.98;;;12.30;99.90;;;;;;5012614;28;20531;-78
2023/09/03 05:28:26;;;;;;;16.08;9.02;;;12.30;99.90;;;;;;5031499;28;20120;-77
2023/09/03 05:30:53;;;;;;;13.02;9.30;;;12.30;99.90;;;;;;5031500;28;20087;-77
2023/09/03 05:33:19;;;;;;;11.68;8.68;;;12.40;99.90;;;;;;5034340;28;20497;-77
2023/09/03 05:35:47;;;;;;;14.55;10.05;;;12.20;99.90;;;;;;5033442;28;20048;-77
2023/09/03 05:38:13;;;;;;;13.82;9.20;;;12.40;99.90;;;;;;5016492;28;20069;-78
2023/09/03 05:40:41;;;;;;;12.65;8.80;;;12.40;99.90;;;;;;5016523;28;20053;-78
2023/09/03 05:43:07;;;;;;;12.35;8.57;;;12.40;99.90;;;;;;5033222;28;20087;-78
2023/09/03 05:45:32;;;;;;;11.90;8.65;;;12.40;99.90;;;;;;5035052;28;20069;-77
2023/09/03 05:47:58;;;;;;;13.65;8.93;;;12.80;99.90;;;;;;5034240;28;20037;-77
2023/09/03 05:50:24;;;;;;;16.60;9.40;;;13.10;99.90;;;;;;5033810;28;20040;-77
2023/09/03 05:52:49;;;;;;;12.57;8.60;;;12.50;99.90;;;;;;5016315;28;20124;-77
2023/09/03 05:55:17;;;;;;;12.15;9.02;;;12.60;99.90;;;;;;5032691;28;20038;-78
2023/09/03 05:57:43;;;;;;;11.30;8.50;;;12.80;99.90;;;;;;5039661;28;20041;-78
2023/09/03 06:00:09;;;;;;;12.60;8.57;;;12.50;99.90;;;;;;5033693;28;20056;-78
2023/09/03 06:02:38;;;;;;;11.13;7.85;;;12.60;99.90;;;;;;5033722;28;20112;-78
2023/09/03 06:05:04;;;;;;;12.13;8.20;;;12.60;99.90;;;;;;5032747;28;20041;-78
2023/09/03 06:07:39;;;;;;;12.68;8.82;;;12.60;99.90;;;;;;5034088;28;20131;-78
2023/09/03 06:10:05;;;;;;;11.38;8.13;;;12.70;99.90;;;;;;5026679;28;20161;-78
2023/09/03 06:12:31;;;;;;;10.43;7.90;;;12.70;99.90;;;;;;5033328;28;20680;-78
2023/09/03 06:14:58;;;;;;;11.00;8.05;;;12.80;99.90;;;;;;5033241;28;20037;-78
2023/09/03 06:17:24;;;;;;;11.20;8.43;;;12.80;99.90;;;;;;5034059;28;20045;-78
2023/09/03 06:19:50;;;;;;;10.73;8.10;;;12.80;99.90;;;;;;5032527;28;20045;-78
2023/09/03 06:22:17;;;;;;;11.65;7.68;;;12.90;99.90;;;;;;5032374;28;20490;-77
2023/09/03 06:24:43;;;;;;;10.82;8.25;;;13.10;99.90;;;;;;5034076;28;20029;-78
2023/09/03 06:27:10;;;;;;;11.00;8.23;;;13.00;99.90;;;;;;5034160;28;20037;-78
2023/09/03 06:29:36;;;;;;;12.77;8.57;;;13.00;99.90;;;;;;5032836;28;20036;-77
2023/09/03 06:32:02;;;;;;;10.85;8.32;;;12.60;99.90;;;;;;5032139;28;20037;-78
2023/09/03 06:34:28;;;;;;;10.07;8.00;;;13.10;99.90;;;;;;5032657;28;20489;-78
2023/09/03 06:36:54;;;;;;;11.48;8.65;;;13.10;99.90;;;;;;5031701;28;20037;-78
2023/09/03 06:39:20;;;;;;;11.63;8.20;;;13.20;99.90;;;;;;5033561;28;20075;-77
2023/09/03 06:41:46;;;;;;;10.38;8.05;;;13.20;99.90;;;;;;5032586;28;20041;-77
2023/09/03 06:44:13;;;;;;;10.82;8.00;;;13.20;99.90;;;;;;5015122;28;20528;-77
2023/09/03 06:46:38;;;;;;;11.60;7.90;;;13.30;99.90;;;;;;5033445;28;20040;-77
2023/09/03 06:49:04;;;;;;;11.35;8.38;;;13.30;99.90;;;;;;5020860;28;20045;-77
2023/09/03 06:51:29;;;;;;;12.63;8.95;;;13.30;99.90;;;;;;5031816;28;20041;-77
2023/09/03 06:53:56;;;;;;;12.38;8.63;;;13.40;99.90;;;;;;5033491;28;20037;-77
2023/09/03 06:56:23;;;;;;;12.02;8.95;;;13.40;99.90;;;;;;5016908;28;20045;-77
2023/09/03 06:58:48;;;;;;;14.93;9.15;;;13.50;99.90;;;;;;5031348;28;20149;-77
2023/09/03 07:01:14;;;;;;;17.00;9.35;;;13.50;99.90;;;;;;5023638;28;20045;-77
2023/09/03 07:03:40;;;;;;;11.80;9.55;;;13.80;99.90;;;;;;5033837;28;20049;-77
2023/09/03 07:06:05;;;;;;;12.07;9.52;;;13.60;99.90;;;;;;5031724;28;20040;-77
2023/09/03 07:08:31;;;;;;;12.45;9.23;;;13.70;99.90;;;;;;5032412;28;20493;-78
2023/09/03 07:11:00;;;;;;;13.55;9.00;;;13.70;99.90;;;;;;5032516;28;20379;-78
2023/09/03 07:13:31;;;;;;;12.57;8.80;;;13.80;99.90;;;;;;5015561;28;20436;-78
2023/09/03 07:16:03;;;;;;;12.45;9.10;;;13.80;99.90;;;;;;5012491;28;20405;-78
2023/09/03 07:18:28;;;;;;;14.30;10.30;;;13.90;99.90;;;;;;5032818;28;20566;-78
2023/09/03 07:21:07;;;;;;;19.13;10.60;;;14.00;99.90;;;;;;5036694;28;20120;-78
2023/09/03 07:23:35;;;;;;;14.60;10.23;;;14.00;99.90;;;;;;5015534;28;20567;-78
2023/09/03 07:26:05;;;;;;;14.63;10.00;;;14.20;99.90;;;;;;5031821;28;20045;-78
2023/09/03 07:28:32;;;;;;;14.23;11.50;;;14.20;99.90;;;;;;4998553;28;20120;-78
2023/09/03 07:30:57;;;;;;;19.02;11.63;;;14.20;99.90;;;;;;5027007;28;20159;-78
2023/09/03 07:33:24;;;;;;;19.15;11.75;;;14.60;99.90;;;;;;5031253;28;20068;-77
2023/09/03 07:35:49;;;;;;;16.35;11.50;;;14.30;99.90;;;;;;5015092;28;20081;-77
2023/09/03 07:38:15;;;;;;;17.05;11.45;;;14.90;99.90;;;;;;5033841;28;20079;-77
2023/09/03 07:40:41;;;;;;;19.77;12.57;;;14.40;99.90;;;;;;5015757;28;20041;-77
2023/09/03 07:43:09;;;;;;;18.27;12.23;;;14.50;99.90;;;;;;5030137;28;20048;-78
2023/09/03 07:45:35;;;;;;;16.20;12.40;;;14.50;99.90;;;;;;5032934;28;20087;-78
2023/09/03 07:48:04;;;;;;;17.50;12.80;;;14.60;99.90;;;;;;5014042;28;20034;-78
2023/09/03 07:50:33;;;;;;;16.88;12.20;;;14.70;99.90;;;;;;5030382;28;20034;-77
2023/09/03 07:52:59;;;;;;;17.38;12.02;;;14.70;99.90;;;;;;5025262;28;20041;-78
2023/09/03 07:55:30;;;;;;;16.95;11.63;;;14.90;99.90;;;;;;5030741;28;20075;-78
2023/09/03 07:57:56;;;;;;;16.98;11.57;;;15.00;99.90;;;;;;5032807;28;20469;-78
2023/09/03 08:00:22;;;;;;;15.30;10.98;;;15.10;99.90;;;;;;5030713;28;20076;-77
2023/09/03 08:02:47;;;;;;;14.60;10.55;;;15.10;99.90;;;;;;5030260;28;20044;-77
2023/09/03 08:05:13;;;;;;;14.43;9.95;;;15.30;99.90;;;;;;5031123;28;20057;-77
2023/09/03 08:07:39;;;;;;;12.82;10.30;;;15.40;99.90;;;;;;5031300;28;20033;-77
2023/09/03 08:10:05;;;;;;;16.38;10.55;;;16.00;99.90;;;;;;5029884;28;20044;-77
2023/09/03 08:12:30;;;;;;;14.30;10.82;;;15.50;99.90;;;;;;5013307;28;20041;-77
2023/09/03 08:14:56;;;;;;;17.00;10.68;;;15.60;99.90;;;;;;5032222;28;20034;-78
2023/09/03 08:17:26;;;;;;;13.90;11.68;;;15.70;99.90;;;;;;5014834;28;20041;-78
2023/09/03 08:19:52;;;;;;;14.95;11.00;;;15.80;99.90;;;;;;5033580;28;20042;-78
2023/09/03 08:22:19;;;;;;;13.18;11.07;;;15.90;99.90;;;;;;5033301;28;20544;-78
2023/09/03 08:24:45;;;;;;;17.02;11.27;;;16.00;99.90;;;;;;5030812;28;20048;-78
2023/09/03 08:27:11;;;;;;;14.57;9.82;;;16.40;99.90;;;;;;5031674;28;20033;-77
2023/09/03 08:29:39;;;;;;;13.25;10.13;;;16.70;99.90;;;;;;5013307;28;20041;-77
2023/09/03 08:32:04;;;;;;;13.82;9.50;;;16.20;99.90;;;;;;5013975;28;20037;-77
2023/09/03 08:34:30;;;;;;;12.20;9.05;;;16.30;99.90;;;;;;5030018;28;20386;-78
2023/09/03 08:36:58;;;;;;;11.88;8.73;;;16.30;99.90;;;;;;5031247;28;20037;-78
2023/09/03 08:39:23;;;;;;;11.38;8.88;;;16.90;99.90;;;;;;5013556;28;20052;-78
2023/09/03 08:41:50;;;;;;;11.68;9.25;;;16.40;99.90;;;;;;5029890;28;20120;-78
2023/09/03 08:44:36;;;;;;;11.50;9.02;;;16.60;99.90;;;;;;5046242;22;20593;-63
2023/09/03 08:47:03;;;;;;;12.82;8.70;;;16.50;99.90;;;;;;5021928;28;20052;-64
2023/09/03 08:49:31;;;;;;;12.07;7.80;;;16.60;99.90;;;;;;5023540;28;20045;-64
2023/09/03 08:51:58;;;;;;;11.57;7.57;;;16.60;99.90;;;;;;5023864;28;20136;-64
2023/09/03 08:54:24;;;;;;;14.52;7.40;;;16.70;99.90;;;;;;5024219;28;20060;-62
2023/09/03 08:56:50;;;;;;;10.60;8.38;;;16.80;99.90;;;;;;5011517;28;20095;-64
2023/09/03 08:59:16;;;;;;;10.32;7.43;;;16.90;99.90;;;;;;5024185;28;20042;-64
2023/09/03 09:01:44;;;;;;;11.88;8.20;;;17.10;99.90;;;;;;5024806;28;20057;-64
2023/09/03 09:04:11;;;;;;;12.18;8.25;;;17.20;99.90;;;;;;5025822;28;20392;-64
2023/09/03 09:06:43;;;;;;;10.80;8.13;;;17.30;99.90;;;;;;5030825;28;20045;-64
2023/09/03 09:09:09;;;;;;;;;;;17.40;99.90;;;;;;5033791;28;20049;-64
2023/09/03 09:11:39;;;;;;;7.43;5.30;;;17.50;99.90;;;;;;5033750;28;20287;-64
2023/09/03 09:14:11;;;;;;;10.68;5.28;;;17.60;99.90;;;;;;5032039;28;20171;-63
2023/09/03 09:16:37;;;;;;;8.93;5.50;;;17.80;99.90;;;;;;5032038;28;20061;-63
2023/09/03 09:19:02;;;;;;;6.60;4.85;;;17.90;99.90;;;;;;5032434;28;20045;-63
2023/09/03 09:21:31;;;;;;;7.88;5.25;;;18.00;99.90;;;;;;5033545;28;20131;-64
2023/09/03 09:24:06;;;;;;;7.45;5.43;;;18.20;99.90;;;;;;5031749;28;20218;-65
2023/09/03 09:26:32;;;;;;;9.18;4.78;;;18.40;99.90;;;;;;5032029;28;20041;-65
2023/09/03 09:29:02;;;;;;;8.75;4.97;;;18.60;99.90;;;;;;5030541;28;20030;-64
2023/09/03 09:31:32;;;;;;;8.07;4.78;;;18.70;99.90;;;;;;5027891;28;20432;-65
2023/09/03 09:34:00;;;;;;;7.18;4.45;;;18.80;99.90;;;;;;5033185;28;20033;-65
2023/09/03 09:36:26;;;;;;;7.25;4.80;;;19.00;99.90;;;;;;5033292;28;20041;-65
2023/09/03 09:38:52;;;;;;;5.35;3.75;;;19.10;99.90;;;;;;5032615;28;20067;-65
2023/09/03 09:41:25;;;;;;;5.85;3.58;;;19.20;99.90;;;;;;5033292;28;20029;-65
2023/09/03 09:43:52;;;;;;;6.22;4.20;;;19.30;99.90;;;;;;5032711;28;20048;-65
2023/09/03 09:46:31;;;;;;;7.28;4.07;;;19.30;99.90;;;;;;5032995;28;20036;-64
2023/09/03 09:48:58;;;;;;;6.80;4.70;;;19.50;99.90;;;;;;5032772;28;20033;-65
2023/09/03 09:51:25;;;;;;;6.32;3.70;;;19.50;99.90;;;;;;5028267;28;20468;-65
2023/09/03 09:53:59;;;;;;;7.00;3.38;;;19.40;99.90;;;;;;5032342;28;20589;-65
2023/09/03 09:56:35;;;;;;;5.45;3.90;;;19.50;99.90;;;;;;5031079;28;20100;-65
2023/09/03 09:59:02;;;;;;;6.25;4.10;;;19.60;99.90;;;;;;5030660;28;20530;-65
2023/09/03 10:01:46;;;;;;;6.47;3.35;;;19.70;99.90;;;;;;5032467;28;20073;-64
2023/09/03 10:04:11;;;;;;;4.25;2.90;;;19.80;99.90;;;;;;5030115;28;20191;-66
2023/09/03 10:06:39;;;;;;;4.90;3.38;;;19.90;99.90;;;;;;5026738;28;20268;-65
2023/09/03 10:09:07;;;;;;;5.93;2.83;;;20.10;99.90;;;;;;5031724;28;20547;-65
2023/09/03 10:11:33;;;;;;;5.57;3.10;;;20.30;99.90;;;;;;5026465;28;20487;-65
2023/09/03 10:13:59;;;;;;;4.93;2.95;;;20.50;99.90;;;;;;5031852;28;20099;-65
2023/09/03 10:16:25;;;;;;;5.43;3.88;;;20.60;99.90;;;;;;5031904;28;20483;-65
2023/09/03 10:18:50;;;;;;;4.95;3.67;;;20.70;99.90;;;;;;5030936;28;20029;-65
2023/09/03 10:21:37;;;;;;;7.07;3.63;;;20.80;99.90;;;;;;5029156;28;20037;-65
2023/09/03 10:24:05;;;;;;;4.25;3.45;;;20.90;99.90;;;;;;5029750;28;20041;-65
2023/09/03 10:26:44;;;;;;;6.43;3.58;;;21.00;99.90;;;;;;5030992;28;20049;-65
2023/09/03 10:29:11;;;;;;;;;;;21.10;99.90;;;;;;5028403;28;20045;-66
2023/09/03 10:31:39;;;;;;;5.05;2.88;;;21.30;99.90;;;;;;5031799;28;19975;-65
2023/09/03 10:34:10;;;;;;;7.57;3.47;;;21.40;99.90;;;;;;5026918;28;20176;-65
2023/09/03 10:36:35;;;;;;;4.55;3.30;;;21.50;99.90;;;;;;5030408;28;20443;-65
2023/09/03 10:39:21;;;;;;;6.30;3.33;;;21.50;99.90;;;;;;5027576;28;20128;-65
2023/09/03 10:41:46;;;;;;;4.20;2.80;;;21.60;99.90;;;;;;5029092;28;20367;-66
2023/09/03 10:44:15;;;;;;;4.70;2.42;;;21.50;99.90;;;;;;5031500;28;20049;-65
2023/09/03 10:47:00;;;;;;;4.55;2.42;;;21.50;99.90;;;;;;5023486;28;20041;-65
2023/09/03 10:49:45;;;;;;;4.25;2.40;;;21.40;99.90;;;;;;5030271;28;20108;-66
2023/09/03 10:52:34;;;;;;;4.55;2.90;;;21.30;99.90;;;;;;5025219;28;20052;-64
2023/09/03 10:55:17;;;;;;;4.30;2.63;;;21.50;99.90;;;;;;5031729;28;20056;-65
2023/09/03 10:57:48;;;;;;;4.38;2.70;;;21.70;99.90;;;;;;5029455;28;20264;-66
2023/09/03 11:00:23;;;;;;;4.38;2.78;;;21.80;99.90;;;;;;5022847;28;20041;-65
2023/09/03 11:02:49;;;;;;;4.53;2.30;;;21.90;99.90;;;;;;5028756;28;20246;-65
2023/09/03 11:05:22;;;;;;;5.63;2.88;;;22.20;99.90;;;;;;5021544;28;20045;-66
2023/09/03 11:08:31;;;;;;;4.68;2.88;;;22.30;99.90;;;;;;5026464;28;20037;-66
2023/09/03 11:10:58;;;;;;;4.65;2.40;;;22.40;99.90;;;;;;5029640;28;20060;-66
2023/09/03 11:13:23;;;;;;;3.97;2.25;;;22.50;99.90;;;;;;5031068;28;20049;-63
2023/09/03 11:15:55;;;;;;;4.13;2.45;;;22.60;99.90;;;;;;5031001;28;20706;-65
2023/09/03 11:18:22;;;;;;;5.00;2.20;;;22.60;99.90;;;;;;5029527;28;20120;-66
2023/09/03 11:20:51;;;;;;;3.28;2.08;;;22.70;99.90;;;;;;5027890;28;20116;-66
2023/09/03 11:23:17;;;;;;;3.17;1.90;;;22.80;99.90;;;;;;5029667;28;20053;-65
2023/09/03 11:25:45;;;;;;;3.90;2.05;;;22.80;99.90;;;;;;5029475;28;20125;-64
2023/09/03 11:28:14;;;;;;;4.50;2.00;;;23.00;99.90;;;;;;5029874;28;20124;-65
2023/09/03 11:30:44;;;;;;;3.53;1.70;;;23.00;99.90;;;;;;5027843;28;20081;-66
2023/09/03 11:33:30;;;;;;;3.60;1.70;;;23.00;99.90;;;;;;5027124;28;20037;-66
2023/09/03 11:35:59;;;;;;;3.28;1.70;;;23.10;99.90;;;;;;5025088;28;20129;-65
2023/09/03 11:38:26;;;;;;;4.68;2.00;;;23.00;99.90;;;;;;5030151;28;20051;-65
2023/09/03 11:40:56;;;;;;;2.28;1.77;;;23.00;99.90;;;;;;5030827;28;20447;-65
2023/09/03 11:43:22;;;;;;;2.53;1.67;;;23.10;99.90;;;;;;5021655;28;20462;-65
2023/09/03 11:45:48;;;;;;;3.55;1.90;;;23.10;99.90;;;;;;5028869;28;20491;-65
2023/09/03 11:48:14;;;;;;;4.43;1.90;;;23.30;99.90;;;;;;5025274;28;20060;-66
2023/09/03 11:50:39;;;;;;;2.58;1.52;;;23.30;99.90;;;;;;5027809;28;20403;-65
2023/09/03 11:53:05;;;;;;;4.85;1.88;;;23.40;99.90;;;;;;5030878;28;20041;-65
2023/09/03 11:55:36;;;;;;;3.13;1.90;;;23.40;99.90;;;;;;5030592;28;20037;-66
2023/09/03 11:58:04;;;;;;;2.83;1.70;;;23.40;99.90;;;;;;5028978;28;20053;-66
2023/09/03 12:00:31;;;;;;;3.45;1.50;;;23.40;99.90;;;;;;5022978;28;20087;-66
2023/09/03 12:02:58;;;;;;;2.88;1.88;;;23.40;99.90;;;;;;5028992;28;20095;-65
2023/09/03 12:05:25;;;;;;;3.65;1.75;;;23.40;99.90;;;;;;5026097;28;20092;-65
2023/09/03 12:07:50;;;;;;;5.15;1.80;;;23.50;99.90;;;;;;5028631;28;20038;-65
2023/09/03 12:10:21;;;;;;;3.65;2.05;;;23.50;99.90;;;;;;5029891;28;20111;-65
2023/09/03 12:12:46;;;;;;;3.30;1.60;;;23.60;99.90;;;;;;5023229;28;20041;-65
2023/09/03 12:15:22;;;;;;;4.30;1.70;;;23.80;99.90;;;;;;5029708;28;20037;-65
2023/09/03 12:17:48;;;;;;;4.78;2.05;;;24.00;99.90;;;;;;5023448;28;20038;-66
2023/09/03 12:20:34;;;;;;;3.17;1.77;;;24.10;99.90;;;;;;5028937;28;20040;-65
2023/09/03 12:23:26;;;;;;;2.70;1.67;;;24.20;99.90;;;;;;5023403;28;20642;-66
2023/09/03 12:25:52;;;;;;;2.70;1.80;;;24.30;99.90;;;;;;5025664;28;20046;-65
2023/09/03 12:28:18;;;;;;;3.28;1.83;;;24.40;99.90;;;;;;5028314;28;20514;-63
2023/09/03 12:31:04;;;;;;;3.38;1.83;;;24.30;99.90;;;;;;5028236;28;20415;-65
2023/09/03 12:33:32;;;;;;;2.83;1.80;;;24.30;99.60;;;;;;5029844;28;20550;-66
2023/09/03 12:36:05;;;;;;;3.45;1.80;;;24.40;99.80;;;;;;5028678;28;20056;-66
2023/09/03 12:38:31;;;;;;;5.10;1.92;;;24.30;99.70;;;;;;5029536;28;20112;-65
2023/09/03 12:40:57;;;;;;;4.47;2.00;;;24.10;99.80;;;;;;5027537;28;20120;-66
2023/09/03 12:43:35;;;;;;;2.85;1.70;;;24.10;99.90;;;;;;5029116;28;20133;-65
2023/09/03 12:46:01;;;;;;;3.03;1.98;;;24.10;99.90;;;;;;5031367;28;20044;-65
2023/09/03 12:48:26;;;;;;;2.67;1.77;;;24.20;99.90;;;;;;5029146;28;20041;-64
2023/09/03 12:50:52;;;;;;;4.32;1.85;;;24.30;99.90;;;;;;5028926;28;20034;-65